Time;durP1;ratioP1;P1;durP2;ratioP2;P2;SDS_P1;SDS_P2;PMS_P1;PMS_P2;Temp;Humidity;BMP_temperature;BMP_pressure;BME280_temperature;BME280_humidity;BME280_pressure;Samples;Min_cycle;Max_cycle;Signal;HPM_P1;HPM_P2
2022/08/14 00:01:22;;;;;;;0.20;0.10;;;;;;;;;;6182909;22;20048;-84
2022/08/14 00:03:49;;;;;;;0.20;0.10;;;;;;;;;;6185997;22;20012;-84
2022/08/14 00:06:15;;;;;;;0.20;0.10;;;;;;;;;;6186050;22;20016;-84
2022/08/14 00:08:41;;;;;;;0.20;0.20;;;;;;;;;;6185385;23;20043;-84
2022/08/14 00:11:07;;;;;;;0.20;0.10;;;;;;;;;;6183390;23;20092;-87
2022/08/14 00:13:34;;;;;;;0.28;0.10;;;;;;;;;;6185579;23;20515;-84
2022/08/14 00:16:00;;;;;;;0.20;0.10;;;;;;;;;;6184941;23;20021;-85
2022/08/14 00:18:27;;;;;;;0.20;0.10;;;;;;;;;;6187378;22;20087;-84
2022/08/14 00:20:53;;;;;;;0.20;0.10;;;;;;;;;;6184792;23;20017;-87
2022/08/14 00:23:19;;;;;;;0.20;0.10;;;;;;;;;;6187849;22;20037;-86
2022/08/14 00:25:47;;;;;;;0.20;0.10;;;;;;;;;;6185029;22;20088;-84
2022/08/14 00:28:13;;;;;;;0.20;0.10;;;;;;;;;;6187737;23;20466;-84
2022/08/14 00:30:40;;;;;;;0.20;0.10;;;;;;;;;;6183543;23;20020;-85
2022/08/14 00:33:06;;;;;;;0.20;0.10;;;;;;;;;;6188857;22;20047;-87
2022/08/14 00:35:33;;;;;;;0.20;0.10;;;;;;;;;;6188192;22;20016;-86
2022/08/14 00:37:59;;;;;;;0.20;0.10;;;;;;;;;;6187555;23;20013;-85
2022/08/14 00:40:25;;;;;;;0.20;0.10;;;;;;;;;;6188108;23;20028;-87
2022/08/14 00:42:52;;;;;;;0.20;0.15;;;;;;;;;;6187416;22;20394;-85
2022/08/14 00:45:18;;;;;;;0.20;0.10;;;;;;;;;;6185329;23;20013;-85
2022/08/14 00:47:45;;;;;;;0.20;0.10;;;;;;;;;;6182341;23;20099;-84
2022/08/14 00:50:13;;;;;;;0.20;0.10;;;;;;;;;;6182109;22;20019;-86
2022/08/14 00:52:39;;;;;;;0.20;0.10;;;;;;;;;;6188547;22;20027;-85
2022/08/14 00:55:07;;;;;;;0.20;0.10;;;;;;;;;;6189166;22;20027;-86
2022/08/14 00:57:34;;;;;;;0.20;0.10;;;;;;;;;;6190187;23;20492;-85
2022/08/14 01:00:02;;;;;;;0.20;0.10;;;;;;;;;;6188661;23;20073;-84
2022/08/14 01:02:28;;;;;;;0.20;0.10;;;;;;;;;;6187443;23;20463;-85
2022/08/14 01:04:59;;;;;;;0.20;0.10;;;;;;;;;;6188212;23;20009;-85
2022/08/14 01:07:28;;;;;;;0.20;0.10;;;;;;;;;;6184699;23;20020;-84
2022/08/14 01:10:00;;;;;;;0.20;0.15;;;;;;;;;;6178671;23;20043;-85
2022/08/14 01:12:27;;;;;;;0.20;0.10;;;;;;;;;;6180949;22;20026;-83
2022/08/14 01:14:54;;;;;;;0.20;0.10;;;;;;;;;;6196808;22;20074;-85
2022/08/14 01:21:02;;;;;;;0.22;0.15;;;;;;;;;;6172669;23;20495;-83
2022/08/14 01:22:55;;;;;;;0.50;0.40;;;;;;;;;;6222199;22;20014;-84
2022/08/14 01:25:21;;;;;;;0.20;0.10;;;;;;;;;;6299408;22;20062;-83
2022/08/14 01:27:47;;;;;;;0.20;0.10;;;;;;;;;;6300185;22;20014;-85
2022/08/14 01:30:13;;;;;;;0.22;0.22;;;;;;;;;;6273577;22;20014;-84
2022/08/14 01:32:39;;;;;;;0.20;0.10;;;;;;;;;;6272670;22;20019;-84
2022/08/14 01:35:07;;;;;;;0.20;0.10;;;;;;;;;;6298681;22;20015;-85
2022/08/14 01:37:33;;;;;;;0.20;0.10;;;;;;;;;;6299837;22;20478;-84
2022/08/14 01:40:00;;;;;;;0.20;0.20;;;;;;;;;;6324633;22;20015;-85
2022/08/14 01:42:28;;;;;;;0.20;0.10;;;;;;;;;;6272122;22;20010;-83
2022/08/14 01:44:56;;;;;;;0.20;0.10;;;;;;;;;;6272884;22;20018;-84
2022/08/14 01:47:22;;;;;;;0.20;0.15;;;;;;;;;;6273081;22;20066;-85
2022/08/14 01:49:53;;;;;;;0.20;0.10;;;;;;;;;;6272949;22;20050;-84
2022/08/14 01:52:21;;;;;;;0.20;0.15;;;;;;;;;;6271909;22;20018;-84
2022/08/14 01:54:47;;;;;;;0.20;0.10;;;;;;;;;;6272200;22;20049;-85
2022/08/14 01:57:13;;;;;;;0.20;0.10;;;;;;;;;;6271917;22;20011;-84
2022/08/14 01:59:42;;;;;;;0.40;0.32;;;;;;;;;;6318052;22;20019;-83
2022/08/14 02:02:13;;;;;;;0.20;0.10;;;;;;;;;;6325219;22;20022;-83
2022/08/14 02:04:39;;;;;;;0.20;0.10;;;;;;;;;;6326432;22;20014;-85
2022/08/14 02:07:06;;;;;;;0.20;0.10;;;;;;;;;;6273363;22;20022;-83
2022/08/14 02:09:36;;;;;;;0.30;0.20;;;;;;;;;;6326117;22;20011;-85
2022/08/14 02:12:04;;;;;;;0.60;0.30;;;;;;;;;;6273817;22;20011;-85
2022/08/14 02:14:30;;;;;;;0.20;0.10;;;;;;;;;;6298193;22;20014;-85
2022/08/14 02:16:56;;;;;;;0.20;0.10;;;;;;;;;;6297877;22;20010;-83
2022/08/14 02:19:25;;;;;;;0.20;0.10;;;;;;;;;;6272999;22;20018;-85
2022/08/14 02:21:53;;;;;;;0.20;0.10;;;;;;;;;;6273270;22;20094;-84
2022/08/14 02:24:20;;;;;;;0.32;0.28;;;;;;;;;;6298491;22;20183;-84
2022/08/14 02:26:49;;;;;;;0.20;0.10;;;;;;;;;;6272891;22;20129;-85
2022/08/14 02:29:21;;;;;;;0.20;0.10;;;;;;;;;;6272407;22;20053;-84
2022/08/14 02:31:48;;;;;;;0.20;0.10;;;;;;;;;;6272507;22;20214;-83
2022/08/14 02:34:20;;;;;;;0.20;0.10;;;;;;;;;;6326100;22;20022;-84
2022/08/14 02:36:48;;;;;;;0.20;0.10;;;;;;;;;;6271460;22;20011;-85
2022/08/14 02:39:14;;;;;;;0.20;0.10;;;;;;;;;;6272637;22;20015;-84
2022/08/14 02:41:41;;;;;;;0.20;0.10;;;;;;;;;;6272603;22;20007;-86
2022/08/14 02:44:09;;;;;;;0.20;0.10;;;;;;;;;;6323176;22;20018;-85
2022/08/14 02:46:35;;;;;;;0.20;0.10;;;;;;;;;;6273092;22;20042;-84
2022/08/14 02:49:02;;;;;;;0.20;0.10;;;;;;;;;;6273477;22;20495;-83
2022/08/14 02:51:28;;;;;;;0.20;0.10;;;;;;;;;;6274591;22;20083;-84
2022/08/14 02:53:57;;;;;;;0.43;0.43;;;;;;;;;;6273725;22;20025;-85
2022/08/14 02:56:26;;;;;;;0.20;0.10;;;;;;;;;;6274107;22;20022;-84
2022/08/14 02:58:55;;;;;;;0.20;0.10;;;;;;;;;;6274187;22;20027;-84
2022/08/14 03:01:21;;;;;;;0.20;0.10;;;;;;;;;;6324773;22;20018;-85
2022/08/14 03:03:48;;;;;;;0.20;0.10;;;;;;;;;;6275324;22;20284;-83
2022/08/14 03:06:15;;;;;;;0.20;0.10;;;;;;;;;;6327217;22;20011;-83
2022/08/14 03:08:42;;;;;;;0.20;0.10;;;;;;;;;;6275716;22;20052;-84
2022/08/14 03:11:12;;;;;;;0.20;0.10;;;;;;;;;;6275449;22;20124;-84
2022/08/14 03:13:46;;;;;;;0.20;0.10;;;;;;;;;;6300813;22;20007;-84
2022/08/14 03:16:13;;;;;;;0.20;0.10;;;;;;;;;;6273888;22;20017;-83
2022/08/14 03:18:41;;;;;;;0.20;0.10;;;;;;;;;;6275550;22;20011;-84
2022/08/14 03:21:08;;;;;;;0.20;0.10;;;;;;;;;;6327730;22;20224;-83
2022/08/14 03:23:35;;;;;;;0.20;0.10;;;;;;;;;;6275809;22;20325;-85
2022/08/14 03:26:02;;;;;;;0.20;0.10;;;;;;;;;;6326657;22;20017;-83
2022/08/14 03:28:29;;;;;;;0.20;0.10;;;;;;;;;;6275973;22;20388;-84
2022/08/14 03:30:56;;;;;;;0.43;0.20;;;;;;;;;;6274318;22;20501;-84
2022/08/14 03:33:22;;;;;;;0.20;0.10;;;;;;;;;;6273938;22;20019;-83
2022/08/14 03:35:50;;;;;;;0.20;0.10;;;;;;;;;;6274217;22;20023;-84
2022/08/14 03:38:17;;;;;;;0.20;0.10;;;;;;;;;;6300192;22;20060;-84
2022/08/14 03:40:43;;;;;;;0.20;0.00;;;;;;;;;;6300727;22;20019;-82
2022/08/14 03:43:10;;;;;;;0.20;0.10;;;;;;;;;;6273897;22;20867;-85
2022/08/14 03:45:36;;;;;;;0.20;0.10;;;;;;;;;;6274620;22;20019;-84
2022/08/14 03:48:19;;;;;;;0.20;0.10;;;;;;;;;;6273798;22;20084;-84
2022/08/14 03:50:46;;;;;;;0.20;0.10;;;;;;;;;;6274884;22;20018;-83
2022/08/14 03:53:13;;;;;;;0.20;0.10;;;;;;;;;;6326887;22;20023;-83
2022/08/14 03:55:39;;;;;;;0.20;0.20;;;;;;;;;;6274786;22;20473;-83
2022/08/14 03:58:06;;;;;;;0.20;0.10;;;;;;;;;;6273449;22;20152;-83
2022/08/14 04:00:33;;;;;;;0.20;0.10;;;;;;;;;;6323885;22;20015;-83
2022/08/14 04:02:59;;;;;;;0.20;0.10;;;;;;;;;;6326214;22;20348;-83
2022/08/14 04:05:25;;;;;;;0.20;0.10;;;;;;;;;;6276939;22;20086;-83
2022/08/14 04:07:51;;;;;;;0.20;0.15;;;;;;;;;;6276566;22;20099;-84
2022/08/14 04:10:18;;;;;;;0.20;0.10;;;;;;;;;;6299831;22;20014;-83
2022/08/14 04:12:44;;;;;;;0.20;0.10;;;;;;;;;;6274104;22;20017;-83
2022/08/14 04:15:10;;;;;;;0.20;0.10;;;;;;;;;;6274317;22;20018;-83
2022/08/14 04:17:36;;;;;;;0.20;0.10;;;;;;;;;;6273482;22;20098;-84
2022/08/14 04:20:05;;;;;;;0.20;0.10;;;;;;;;;;6274297;22;20015;-83
2022/08/14 04:22:32;;;;;;;0.20;0.10;;;;;;;;;;6327257;22;20007;-83
2022/08/14 04:24:58;;;;;;;0.40;0.40;;;;;;;;;;6274495;22;20007;-85
2022/08/14 04:27:26;;;;;;;0.20;0.10;;;;;;;;;;6273703;22;20359;-83
2022/08/14 04:29:52;;;;;;;0.20;0.10;;;;;;;;;;6299740;22;20462;-83
2022/08/14 04:32:18;;;;;;;0.20;0.15;;;;;;;;;;6272684;22;20662;-84
2022/08/14 04:34:44;;;;;;;0.25;0.20;;;;;;;;;;6273810;22;20014;-84
2022/08/14 04:45:31;;;;;;;0.20;0.10;;;;;;;;;;6325305;22;20340;-83
2022/08/14 04:48:13;;;;;;;0.20;0.10;;;;;;;;;;6325501;22;20014;-83
2022/08/14 04:50:44;;;;;;;1.45;0.30;;;;;;;;;;6324692;22;20018;-84
2022/08/14 04:53:11;;;;;;;0.20;0.10;;;;;;;;;;6273509;22;20050;-83
2022/08/14 04:55:38;;;;;;;1.10;0.85;;;;;;;;;;6274128;22;20014;-83
2022/08/14 04:58:04;;;;;;;0.30;0.20;;;;;;;;;;6298925;22;20007;-83
2022/08/14 05:00:31;;;;;;;0.20;0.10;;;;;;;;;;6272796;22;20015;-83
2022/08/14 05:02:58;;;;;;;0.20;0.10;;;;;;;;;;6273843;22;20439;-83
2022/08/14 05:05:24;;;;;;;0.55;0.50;;;;;;;;;;6274897;22;20014;-84
2022/08/14 05:07:51;;;;;;;0.20;0.10;;;;;;;;;;6273669;22;20019;-84
2022/08/14 05:10:22;;;;;;;0.20;0.10;;;;;;;;;;6275695;22;20473;-82
2022/08/14 05:12:50;;;;;;;0.30;0.20;;;;;;;;;;6325233;22;20370;-83
2022/08/14 05:15:18;;;;;;;0.20;0.10;;;;;;;;;;6325132;22;20067;-83
2022/08/14 05:17:44;;;;;;;0.20;0.10;;;;;;;;;;6273006;22;20102;-84
2022/08/14 05:20:11;;;;;;;0.20;0.10;;;;;;;;;;6272861;22;20378;-83
2022/08/14 05:22:37;;;;;;;0.20;0.10;;;;;;;;;;6272694;22;20320;-84
2022/08/14 05:25:03;;;;;;;0.20;0.10;;;;;;;;;;6273392;22;20011;-84
2022/08/14 05:27:29;;;;;;;0.20;0.10;;;;;;;;;;6273549;22;20014;-84
2022/08/14 05:29:55;;;;;;;0.20;0.10;;;;;;;;;;6327222;22;20098;-84
2022/08/14 05:32:22;;;;;;;0.20;0.10;;;;;;;;;;6298510;22;20034;-85
2022/08/14 05:34:48;;;;;;;0.20;0.10;;;;;;;;;;6325907;22;20014;-84
2022/08/14 05:37:14;;;;;;;0.20;0.10;;;;;;;;;;6300067;22;20454;-86
2022/08/14 05:39:41;;;;;;;0.20;0.10;;;;;;;;;;6300695;22;20015;-87
2022/08/14 05:42:07;;;;;;;0.20;0.10;;;;;;;;;;6326038;22;20041;-85
2022/08/14 05:44:33;;;;;;;0.20;0.20;;;;;;;;;;6273361;22;20011;-84
2022/08/14 05:47:00;;;;;;;0.20;0.10;;;;;;;;;;6273740;22;20039;-86
2022/08/14 05:49:27;;;;;;;0.20;0.10;;;;;;;;;;6274677;22;20190;-84
2022/08/14 05:51:53;;;;;;;0.32;0.15;;;;;;;;;;6272939;22;20014;-85
2022/08/14 05:54:19;;;;;;;0.20;0.10;;;;;;;;;;6325529;22;20021;-84
2022/08/14 05:56:45;;;;;;;0.20;0.10;;;;;;;;;;6273106;22;20027;-84
2022/08/14 05:59:12;;;;;;;0.20;0.10;;;;;;;;;;6273064;22;20017;-85
2022/08/14 06:01:38;;;;;;;0.20;0.10;;;;;;;;;;6273485;22;20011;-85
2022/08/14 06:04:04;;;;;;;0.20;0.10;;;;;;;;;;6273800;22;20017;-86
2022/08/14 06:06:30;;;;;;;0.20;0.10;;;;;;;;;;6273592;22;20121;-84
2022/08/14 06:08:56;;;;;;;0.20;0.10;;;;;;;;;;6274544;22;20029;-85
2022/08/14 06:11:22;;;;;;;0.20;0.10;;;;;;;;;;6274748;22;20011;-86
2022/08/14 06:13:48;;;;;;;0.20;0.10;;;;;;;;;;6328598;22;20456;-83
2022/08/14 06:16:16;;;;;;;0.20;0.10;;;;;;;;;;6274268;22;20015;-84
2022/08/14 06:18:42;;;;;;;0.20;0.10;;;;;;;;;;6275879;22;20022;-83
2022/08/14 06:21:08;;;;;;;0.20;0.05;;;;;;;;;;6275980;22;20036;-85
2022/08/14 06:23:34;;;;;;;0.20;0.10;;;;;;;;;;6273978;22;20386;-85
2022/08/14 06:26:00;;;;;;;0.20;0.10;;;;;;;;;;6274752;22;20014;-84
2022/08/14 06:28:29;;;;;;;0.20;0.20;;;;;;;;;;6325435;22;20068;-84
2022/08/14 06:30:56;;;;;;;0.20;0.10;;;;;;;;;;6326993;22;20022;-84
2022/08/14 06:33:22;;;;;;;0.20;0.10;;;;;;;;;;6275229;22;20664;-84
2022/08/14 06:35:48;;;;;;;0.20;0.10;;;;;;;;;;6275781;22;20010;-84
2022/08/14 06:38:19;;;;;;;0.20;0.10;;;;;;;;;;6275949;22;20057;-84
2022/08/14 06:40:46;;;;;;;0.20;0.10;;;;;;;;;;6273703;22;20451;-84
2022/08/14 06:43:13;;;;;;;0.20;0.10;;;;;;;;;;6275328;22;20011;-84
2022/08/14 06:45:40;;;;;;;0.20;0.10;;;;;;;;;;6301169;22;20036;-84
2022/08/14 06:48:16;;;;;;;0.20;0.10;;;;;;;;;;6303364;22;20025;-84
2022/08/14 06:50:43;;;;;;;0.20;0.10;;;;;;;;;;6277075;22;20014;-85
2022/08/14 06:53:10;;;;;;;0.20;0.10;;;;;;;;;;6277633;22;20018;-84
2022/08/14 06:55:36;;;;;;;0.20;0.10;;;;;;;;;;6275676;22;20026;-86
2022/08/14 06:58:02;;;;;;;0.20;0.10;;;;;;;;;;6273909;22;20015;-86
2022/08/14 07:00:28;;;;;;;0.20;0.10;;;;;;;;;;6299645;22;20362;-86
2022/08/14 07:05:46;;;;;;;0.20;0.10;;;;;;;;;;6329501;22;20011;-85
2022/08/14 07:08:17;;;;;;;0.20;0.10;;;;;;;;;;6275579;22;20015;-86
2022/08/14 07:10:48;;;;;;;0.20;0.10;;;;;;;;;;6329333;22;20014;-85
2022/08/14 07:13:17;;;;;;;0.20;0.10;;;;;;;;;;6250474;22;20023;-85
2022/08/14 07:15:45;;;;;;;0.20;0.10;;;;;;;;;;6174639;23;20016;-85
2022/08/14 07:18:12;;;;;;;0.20;0.10;;;;;;;;;;6172969;23;20464;-83
2022/08/14 07:20:39;;;;;;;0.20;0.10;;;;;;;;;;6175034;23;20012;-84
2022/08/14 07:23:06;;;;;;;0.20;0.10;;;;;;;;;;6168507;22;20067;-86
2022/08/14 07:25:33;;;;;;;0.20;0.10;;;;;;;;;;6169175;22;20341;-84
2022/08/14 07:28:00;;;;;;;0.20;0.10;;;;;;;;;;6119908;23;20088;-83
2022/08/14 07:30:26;;;;;;;0.20;0.10;;;;;;;;;;6120275;23;20507;-86
2022/08/14 07:32:52;;;;;;;0.20;0.10;;;;;;;;;;6170454;23;20070;-84
2022/08/14 07:35:18;;;;;;;0.20;0.10;;;;;;;;;;6122435;23;20096;-86
2022/08/14 07:37:47;;;;;;;0.20;0.10;;;;;;;;;;6120371;23;20017;-86
2022/08/14 07:40:13;;;;;;;0.20;0.10;;;;;;;;;;6120219;23;20527;-84
2022/08/14 07:42:40;;;;;;;0.20;0.10;;;;;;;;;;6120007;23;20462;-85
2022/08/14 07:45:06;;;;;;;0.20;0.10;;;;;;;;;;6120759;23;20403;-85
2022/08/14 07:47:32;;;;;;;0.20;0.10;;;;;;;;;;6144829;22;20013;-85
2022/08/14 07:50:03;;;;;;;0.20;0.10;;;;;;;;;;6121133;23;20101;-84
2022/08/14 07:52:29;;;;;;;0.20;0.10;;;;;;;;;;6120259;23;20125;-87
2022/08/14 07:54:56;;;;;;;0.20;0.10;;;;;;;;;;6120408;23;20528;-84
2022/08/14 07:57:22;;;;;;;0.20;0.13;;;;;;;;;;6120075;23;20063;-84
2022/08/14 07:59:48;;;;;;;0.20;0.10;;;;;;;;;;6118339;23;20357;-85
2022/08/14 08:02:15;;;;;;;0.20;0.10;;;;;;;;;;6168236;22;20013;-83
2022/08/14 08:04:43;;;;;;;0.20;0.10;;;;;;;;;;6169441;22;20013;-84
2022/08/14 08:07:10;;;;;;;0.20;0.10;;;;;;;;;;6169018;22;20401;-84
2022/08/14 08:09:36;;;;;;;0.20;0.10;;;;;;;;;;6120291;23;20152;-84
2022/08/14 08:12:04;;;;;;;0.20;0.10;;;;;;;;;;6119644;23;20027;-86
2022/08/14 08:14:31;;;;;;;0.20;0.17;;;;;;;;;;6119669;22;20013;-86
2022/08/14 08:16:59;;;;;;;0.20;0.10;;;;;;;;;;6168511;22;20082;-87
2022/08/14 08:19:25;;;;;;;0.20;0.10;;;;;;;;;;6121043;23;20409;-87
2022/08/14 08:21:52;;;;;;;0.20;0.10;;;;;;;;;;6120423;23;20432;-83
2022/08/14 08:24:18;;;;;;;0.20;0.13;;;;;;;;;;6120811;23;20028;-85
2022/08/14 08:26:44;;;;;;;0.20;0.10;;;;;;;;;;6143297;22;20099;-86
2022/08/14 08:29:18;;;;;;;0.20;0.10;;;;;;;;;;6167465;22;20024;-84
2022/08/14 08:31:51;;;;;;;0.20;0.10;;;;;;;;;;6168247;22;20078;-84
2022/08/14 08:34:18;;;;;;;0.20;0.10;;;;;;;;;;6119996;23;20038;-88
2022/08/14 08:36:44;;;;;;;0.20;0.10;;;;;;;;;;6120366;23;20020;-85
2022/08/14 08:39:10;;;;;;;0.20;0.10;;;;;;;;;;6118549;23;20052;-82
2022/08/14 08:41:40;;;;;;;0.20;0.10;;;;;;;;;;6119646;23;20017;-83
2022/08/14 08:44:06;;;;;;;0.20;0.10;;;;;;;;;;6122500;23;20092;-83
2022/08/14 08:46:33;;;;;;;0.20;0.10;;;;;;;;;;6122017;23;20028;-84
2022/08/14 08:48:59;;;;;;;0.20;0.10;;;;;;;;;;6121341;23;20020;-83
2022/08/14 08:51:25;;;;;;;0.20;0.10;;;;;;;;;;6168623;22;20013;-83
2022/08/14 08:54:08;;;;;;;0.20;0.10;;;;;;;;;;6169685;22;20052;-84
2022/08/14 08:56:35;;;;;;;0.20;0.10;;;;;;;;;;6122328;23;20238;-84
2022/08/14 08:59:06;;;;;;;0.20;0.10;;;;;;;;;;6146439;22;20021;-83
2022/08/14 09:01:32;;;;;;;0.20;0.15;;;;;;;;;;6171737;22;20082;-82
2022/08/14 09:04:04;;;;;;;0.20;0.10;;;;;;;;;;6121579;23;20228;-83
2022/08/14 09:06:31;;;;;;;0.20;0.10;;;;;;;;;;6170573;22;20013;-84
2022/08/14 09:08:57;;;;;;;0.20;0.10;;;;;;;;;;6118364;23;20464;-85
2022/08/14 09:11:23;;;;;;;0.20;0.10;;;;;;;;;;6119620;23;20052;-82
2022/08/14 09:13:50;;;;;;;0.20;0.10;;;;;;;;;;6118546;23;20078;-82
2022/08/14 09:16:19;;;;;;;0.20;0.10;;;;;;;;;;6119088;23;20021;-83
2022/08/14 09:18:46;;;;;;;0.20;0.10;;;;;;;;;;6118734;23;20526;-82
2022/08/14 09:21:12;;;;;;;0.20;0.10;;;;;;;;;;6119501;23;20053;-82
2022/08/14 09:23:39;;;;;;;0.20;0.10;;;;;;;;;;6120535;23;20061;-82
2022/08/14 09:26:05;;;;;;;0.20;0.10;;;;;;;;;;6174229;22;20013;-83
2022/08/14 09:28:32;;;;;;;0.20;0.10;;;;;;;;;;6172986;22;20021;-84
2022/08/14 09:30:58;;;;;;;0.20;0.10;;;;;;;;;;6122973;23;20464;-81
2022/08/14 09:33:34;;;;;;;0.20;0.10;;;;;;;;;;6173509;23;20017;-84
2022/08/14 09:36:18;;;;;;;0.20;0.10;;;;;;;;;;6173598;23;20013;-84
2022/08/14 09:39:00;;;;;;;0.20;0.10;;;;;;;;;;6124378;23;20104;-83
2022/08/14 09:41:39;;;;;;;0.20;0.10;;;;;;;;;;6124633;23;20013;-89
2022/08/14 09:44:23;;;;;;;0.20;0.10;;;;;;;;;;6119279;23;20485;-85
2022/08/14 09:46:54;;;;;;;0.30;0.10;;;;;;;;;;6118273;23;20013;-83
2022/08/14 09:49:30;;;;;;;0.20;0.10;;;;;;;;;;6172768;22;20017;-82
2022/08/14 09:52:06;;;;;;;0.20;0.10;;;;;;;;;;6172972;22;20331;-84
2022/08/14 09:54:37;;;;;;;0.20;0.10;;;;;;;;;;6171680;22;20013;-82
2022/08/14 09:57:05;;;;;;;0.20;0.10;;;;;;;;;;6167261;23;20396;-84
2022/08/14 09:59:40;;;;;;;0.20;0.10;;;;;;;;;;6143869;22;20096;-82
2022/08/14 10:02:18;;;;;;;0.20;0.10;;;;;;;;;;6117251;23;20511;-83
2022/08/14 10:04:59;;;;;;;0.20;0.10;;;;;;;;;;6119885;23;20013;-87
2022/08/14 10:07:37;;;;;;;0.20;0.10;;;;;;;;;;6115712;23;20020;-82
2022/08/14 10:10:04;;;;;;;0.20;0.10;;;;;;;;;;6169872;23;20024;-81
2022/08/14 10:12:43;;;;;;;0.20;0.10;;;;;;;;;;6123303;23;20013;-88
2022/08/14 10:15:18;;;;;;;0.20;0.10;;;;;;;;;;6171062;22;20430;-87
2022/08/14 10:17:45;;;;;;;0.55;0.35;;;;;;;;;;6171685;22;20013;-83
2022/08/14 10:20:12;;;;;;;0.20;0.10;;;;;;;;;;6169497;22;20017;-85
2022/08/14 10:22:38;;;;;;;0.20;0.10;;;;;;;;;;6121895;23;20013;-83
2022/08/14 10:25:13;;;;;;;0.20;0.10;;;;;;;;;;6168735;23;20449;-83
2022/08/14 10:27:39;;;;;;;0.20;0.00;;;;;;;;;;6119699;23;20025;-83
2022/08/14 10:30:12;;;;;;;0.20;0.10;;;;;;;;;;6170706;22;20013;-82
2022/08/14 10:32:45;;;;;;;0.20;0.10;;;;;;;;;;6170038;23;20017;-83
2022/08/14 10:35:12;;;;;;;0.20;0.10;;;;;;;;;;6121555;23;20461;-83
2022/08/14 10:37:39;;;;;;;0.32;0.20;;;;;;;;;;6145028;22;20048;-85
2022/08/14 10:40:06;;;;;;;0.20;0.10;;;;;;;;;;6121227;23;20071;-81
2022/08/14 10:42:42;;;;;;;0.20;0.10;;;;;;;;;;6120119;23;20013;-83
2022/08/14 10:45:19;;;;;;;0.20;0.10;;;;;;;;;;6120454;23;20361;-83
2022/08/14 10:47:46;;;;;;;0.40;0.30;;;;;;;;;;6120739;23;20024;-82
2022/08/14 10:50:15;;;;;;;0.20;0.10;;;;;;;;;;6121227;23;20456;-84
2022/08/14 10:52:41;;;;;;;0.20;0.10;;;;;;;;;;6171048;22;20017;-82
2022/08/14 10:55:07;;;;;;;0.20;0.10;;;;;;;;;;6121469;23;20416;-81
2022/08/14 10:57:35;;;;;;;0.20;0.10;;;;;;;;;;6119863;23;20457;-82
2022/08/14 11:00:14;;;;;;;0.20;0.10;;;;;;;;;;6120543;23;20060;-85
2022/08/14 11:02:41;;;;;;;0.22;0.15;;;;;;;;;;6122177;23;20020;-85
2022/08/14 11:05:07;;;;;;;0.20;0.10;;;;;;;;;;6171758;22;20529;-84
2022/08/14 11:07:35;;;;;;;0.20;0.20;;;;;;;;;;6169304;22;20017;-82
2022/08/14 11:10:03;;;;;;;0.20;0.10;;;;;;;;;;6168420;23;20021;-81
2022/08/14 11:12:45;;;;;;;0.20;0.10;;;;;;;;;;6169436;22;20017;-82
2022/08/14 11:15:11;;;;;;;0.20;0.10;;;;;;;;;;6168220;23;20088;-81
2022/08/14 11:17:38;;;;;;;0.20;0.10;;;;;;;;;;6121275;23;20096;-81
2022/08/14 11:20:06;;;;;;;0.20;0.10;;;;;;;;;;6167274;22;20019;-83
2022/08/14 11:22:35;;;;;;;0.20;0.10;;;;;;;;;;6118542;23;20057;-83
2022/08/14 11:25:05;;;;;;;0.20;0.10;;;;;;;;;;6120186;23;20092;-81
2022/08/14 11:27:32;;;;;;;0.20;0.10;;;;;;;;;;6120955;23;20021;-82
2022/08/14 11:30:05;;;;;;;0.20;0.10;;;;;;;;;;6117702;23;20028;-84
2022/08/14 11:32:31;;;;;;;0.20;0.10;;;;;;;;;;6167232;22;20075;-86
2022/08/14 11:35:04;;;;;;;0.20;0.10;;;;;;;;;;6119952;23;20040;-85
2022/08/14 11:37:33;;;;;;;0.20;0.10;;;;;;;;;;6169889;22;20014;-82
2022/08/14 11:40:00;;;;;;;0.20;0.10;;;;;;;;;;6172328;22;20332;-82
2022/08/14 11:42:26;;;;;;;0.20;0.10;;;;;;;;;;6147688;22;20077;-82
2022/08/14 11:44:56;;;;;;;0.20;0.13;;;;;;;;;;6122767;23;20226;-82
2022/08/14 11:47:22;;;;;;;0.20;0.20;;;;;;;;;;6122085;23;20480;-83
2022/08/14 11:49:48;;;;;;;0.20;0.10;;;;;;;;;;6170984;22;20024;-82
2022/08/14 11:52:16;;;;;;;0.20;0.17;;;;;;;;;;6172769;22;20017;-83
2022/08/14 11:54:43;;;;;;;0.20;0.10;;;;;;;;;;6170732;23;20050;-83
2022/08/14 11:57:13;;;;;;;0.20;0.10;;;;;;;;;;6170355;22;20078;-83
2022/08/14 11:59:40;;;;;;;0.20;0.10;;;;;;;;;;6146848;22;20424;-81
2022/08/14 12:02:13;;;;;;;0.20;0.10;;;;;;;;;;6170958;22;20400;-81
2022/08/14 12:04:51;;;;;;;0.20;0.10;;;;;;;;;;6171513;22;20024;-82
2022/08/14 12:07:18;;;;;;;0.20;0.10;;;;;;;;;;6120566;23;20047;-81
2022/08/14 12:09:45;;;;;;;0.20;0.10;;;;;;;;;;6173111;22;20020;-81
2022/08/14 12:12:15;;;;;;;0.20;0.10;;;;;;;;;;6123490;23;20021;-82
2022/08/14 12:14:55;;;;;;;0.20;0.10;;;;;;;;;;6171755;22;20013;-83
2022/08/14 12:17:25;;;;;;;0.20;0.10;;;;;;;;;;6171456;22;20334;-84
2022/08/14 12:19:58;;;;;;;0.20;0.10;;;;;;;;;;6123467;23;20009;-84
2022/08/14 12:22:41;;;;;;;0.20;0.10;;;;;;;;;;6171542;22;20017;-82
2022/08/14 12:25:08;;;;;;;0.40;0.20;;;;;;;;;;6123365;23;20024;-84
2022/08/14 12:27:41;;;;;;;0.20;0.10;;;;;;;;;;6123222;23;20052;-83
2022/08/14 12:30:08;;;;;;;0.20;0.10;;;;;;;;;;6122207;23;20416;-85
2022/08/14 12:32:40;;;;;;;0.20;0.10;;;;;;;;;;6121622;23;20068;-83
2022/08/14 12:35:08;;;;;;;0.20;0.10;;;;;;;;;;6122642;23;20097;-83
2022/08/14 12:37:35;;;;;;;0.20;0.10;;;;;;;;;;6170950;22;20425;-82
2022/08/14 12:40:15;;;;;;;0.20;0.10;;;;;;;;;;6121952;23;20013;-83
2022/08/14 12:42:43;;;;;;;0.20;0.10;;;;;;;;;;6122690;23;20048;-82
2022/08/14 12:45:11;;;;;;;0.20;0.10;;;;;;;;;;6124155;23;20013;-84
2022/08/14 12:47:38;;;;;;;0.20;0.10;;;;;;;;;;6171934;22;20013;-82
2022/08/14 12:50:05;;;;;;;0.20;0.10;;;;;;;;;;6122427;23;20013;-84
2022/08/14 12:52:32;;;;;;;0.20;0.10;;;;;;;;;;6147023;23;20028;-85
2022/08/14 12:55:03;;;;;;;0.20;0.10;;;;;;;;;;6122778;23;20028;-83
2022/08/14 12:57:41;;;;;;;0.20;0.10;;;;;;;;;;6171946;23;20048;-86
2022/08/14 13:00:11;;;;;;;0.20;0.20;;;;;;;;;;6123736;23;20251;-83
2022/08/14 13:02:40;;;;;;;0.20;0.10;;;;;;;;;;6122778;23;20096;-83
2022/08/14 13:05:08;;;;;;;0.20;0.10;;;;;;;;;;6172154;22;20009;-85
2022/08/14 13:07:34;;;;;;;0.20;0.10;;;;;;;;;;6149534;22;20014;-84
2022/08/14 13:10:01;;;;;;;0.20;0.10;;;;;;;;;;6125847;23;20451;-83
2022/08/14 13:12:28;;;;;;;0.20;0.10;;;;;;;;;;6171852;23;20050;-83
2022/08/14 13:14:58;;;;;;;0.20;0.10;;;;;;;;;;6138791;22;20303;-86
2022/08/14 13:17:25;;;;;;;0.20;0.17;;;;;;;;;;6148487;22;20039;-85
2022/08/14 13:19:53;;;;;;;0.30;0.20;;;;;;;;;;6120979;23;20017;-85
2022/08/14 13:22:25;;;;;;;0.20;0.10;;;;;;;;;;6145284;22;20017;-83
2022/08/14 13:24:51;;;;;;;0.20;0.15;;;;;;;;;;6168241;22;20099;-83
2022/08/14 13:27:19;;;;;;;0.20;0.10;;;;;;;;;;6175690;23;20052;-85
2022/08/14 13:29:45;;;;;;;0.20;0.10;;;;;;;;;;6177279;22;20013;-84
2022/08/14 13:32:12;;;;;;;0.20;0.10;;;;;;;;;;6175656;23;20017;-85
2022/08/14 13:34:39;;;;;;;0.20;0.10;;;;;;;;;;6177607;22;20066;-83
2022/08/14 13:37:06;;;;;;;0.20;0.10;;;;;;;;;;6176149;23;20081;-86
2022/08/14 13:39:34;;;;;;;0.20;0.10;;;;;;;;;;6177712;22;20013;-85
2022/08/14 13:42:03;;;;;;;0.20;0.10;;;;;;;;;;6175983;23;20089;-84
2022/08/14 13:44:34;;;;;;;0.20;0.10;;;;;;;;;;6178186;23;20091;-84
2022/08/14 13:47:05;;;;;;;0.30;0.30;;;;;;;;;;6176327;22;20623;-86
2022/08/14 13:49:36;;;;;;;0.20;0.10;;;;;;;;;;6176882;23;20013;-85
2022/08/14 13:52:03;;;;;;;0.20;0.10;;;;;;;;;;6151149;22;20016;-87
2022/08/14 13:54:31;;;;;;;0.20;0.10;;;;;;;;;;6176492;23;20012;-84
2022/08/14 13:56:59;;;;;;;0.22;0.20;;;;;;;;;;6176359;23;20021;-87
2022/08/14 13:59:27;;;;;;;0.20;0.10;;;;;;;;;;6177066;22;20525;-83
2022/08/14 14:01:55;;;;;;;0.20;0.10;;;;;;;;;;6176452;22;20048;-85
2022/08/14 14:04:23;;;;;;;0.20;0.10;;;;;;;;;;6176554;22;20096;-86
2022/08/14 14:06:50;;;;;;;0.20;0.10;;;;;;;;;;6174927;23;20009;-84
2022/08/14 14:09:30;;;;;;;0.20;0.10;;;;;;;;;;6176135;22;20019;-86
2022/08/14 14:11:59;;;;;;;0.20;0.10;;;;;;;;;;6175515;22;20040;-85
2022/08/14 14:14:26;;;;;;;0.20;0.10;;;;;;;;;;6173893;23;20044;-86
2022/08/14 14:16:52;;;;;;;0.20;0.10;;;;;;;;;;6172538;22;20461;-85
2022/08/14 14:19:19;;;;;;;0.20;0.10;;;;;;;;;;6173392;22;20016;-86
2022/08/14 14:21:49;;;;;;;0.20;0.10;;;;;;;;;;6172464;23;20009;-85
2022/08/14 14:24:15;;;;;;;0.20;0.10;;;;;;;;;;6173995;23;20442;-84
2022/08/14 14:26:45;;;;;;;0.20;0.10;;;;;;;;;;6174692;22;20023;-85
2022/08/14 14:29:13;;;;;;;0.20;0.10;;;;;;;;;;6174505;22;20070;-83
2022/08/14 14:31:39;;;;;;;0.20;0.10;;;;;;;;;;6174087;22;20476;-85
2022/08/14 14:34:08;;;;;;;0.20;0.10;;;;;;;;;;6174885;23;20024;-83
2022/08/14 14:36:34;;;;;;;0.20;0.10;;;;;;;;;;6175978;22;20073;-85
2022/08/14 14:39:04;;;;;;;0.20;0.10;;;;;;;;;;6174079;22;20020;-85
2022/08/14 14:41:31;;;;;;;0.20;0.10;;;;;;;;;;6172947;22;20013;-85
2022/08/14 14:43:58;;;;;;;0.20;0.10;;;;;;;;;;6175112;23;20017;-87
2022/08/14 14:46:31;;;;;;;0.20;0.10;;;;;;;;;;6174793;22;20013;-85
2022/08/14 14:49:00;;;;;;;0.20;0.10;;;;;;;;;;6176375;22;20042;-86
2022/08/14 14:51:26;;;;;;;0.20;0.20;;;;;;;;;;6177611;22;20039;-84
2022/08/14 14:53:56;;;;;;;0.20;0.10;;;;;;;;;;6177154;22;20048;-85
2022/08/14 14:56:27;;;;;;;0.20;0.10;;;;;;;;;;6176555;23;20056;-87
2022/08/14 14:58:53;;;;;;;0.30;0.22;;;;;;;;;;6175497;22;20020;-84
2022/08/14 15:01:22;;;;;;;0.20;0.10;;;;;;;;;;6180613;23;20042;-86
2022/08/14 15:03:52;;;;;;;0.20;0.13;;;;;;;;;;6178901;23;20013;-85